sensor_id;sensor_type;location;lat;lon;timestamp;P1;durP1;ratioP1;P2;durP2;ratioP2
28252;SDS011;15515;45.588;5.276;2022-07-23T04:35:29;11.95;;;9.90;;
28252;SDS011;15515;45.588;5.276;2022-07-23T04:38:08;11.60;;;9.45;;
28252;SDS011;15515;45.588;5.276;2022-07-23T04:40:35;10.70;;;9.60;;
28252;SDS011;15515;45.588;5.276;2022-07-23T04:43:03;11.30;;;9.23;;
28252;SDS011;15515;45.588;5.276;2022-07-23T04:45:35;10.38;;;9.27;;
28252;SDS011;15515;45.588;5.276;2022-07-23T04:48:03;12.93;;;9.75;;
28252;SDS011;15515;45.588;5.276;2022-07-23T04:50:31;10.43;;;9.27;;
28252;SDS011;15515;45.588;5.276;2022-07-23T04:52:59;13.18;;;9.70;;
28252;SDS011;15515;45.588;5.276;2022-07-23T04:55:27;10.43;;;9.30;;
28252;SDS011;15515;45.588;5.276;2022-07-23T04:57:54;11.38;;;10.27;;
28252;SDS011;15515;45.588;5.276;2022-07-23T05:00:22;11.57;;;10.48;;
28252;SDS011;15515;45.588;5.276;2022-07-23T05:02:49;10.93;;;9.77;;
28252;SDS011;15515;45.588;5.276;2022-07-23T05:05:18;12.38;;;9.60;;
28252;SDS011;15515;45.588;5.276;2022-07-23T05:07:47;11.10;;;10.00;;
28252;SDS011;15515;45.588;5.276;2022-07-23T05:10:16;11.90;;;10.77;;
28252;SDS011;15515;45.588;5.276;2022-07-23T05:12:44;15.43;;;12.30;;
28252;SDS011;15515;45.588;5.276;2022-07-23T05:15:11;13.68;;;12.23;;
28252;SDS011;15515;45.588;5.276;2022-07-23T05:17:38;12.88;;;11.57;;
28252;SDS011;15515;45.588;5.276;2022-07-23T05:20:11;14.35;;;11.75;;
28252;SDS011;15515;45.588;5.276;2022-07-23T05:22:40;13.18;;;11.77;;
28252;SDS011;15515;45.588;5.276;2022-07-23T05:25:07;13.43;;;12.07;;
28252;SDS011;15515;45.588;5.276;2022-07-23T05:27:35;13.38;;;12.02;;
28252;SDS011;15515;45.588;5.276;2022-07-23T05:30:02;13.80;;;12.25;;
28252;SDS011;15515;45.588;5.276;2022-07-23T05:32:34;13.52;;;12.18;;
28252;SDS011;15515;45.588;5.276;2022-07-23T05:35:15;14.23;;;12.15;;
28252;SDS011;15515;45.588;5.276;2022-07-23T05:38:00;12.25;;;10.90;;
28252;SDS011;15515;45.588;5.276;2022-07-23T05:40:29;12.85;;;11.65;;
28252;SDS011;15515;45.588;5.276;2022-07-23T05:42:57;12.55;;;10.73;;
28252;SDS011;15515;45.588;5.276;2022-07-23T05:45:50;12.23;;;10.85;;
28252;SDS011;15515;45.588;5.276;2022-07-23T05:48:18;14.95;;;11.30;;
28252;SDS011;15515;45.588;5.276;2022-07-23T05:51:10;12.88;;;11.48;;
28252;SDS011;15515;45.588;5.276;2022-07-23T05:53:37;12.77;;;11.48;;
28252;SDS011;15515;45.588;5.276;2022-07-23T05:56:19;12.65;;;11.40;;
28252;SDS011;15515;45.588;5.276;2022-07-23T05:58:47;12.63;;;10.85;;
28252;SDS011;15515;45.588;5.276;2022-07-23T06:01:17;12.85;;;11.35;;
28252;SDS011;15515;45.588;5.276;2022-07-23T06:03:51;12.60;;;11.30;;
28252;SDS011;15515;45.588;5.276;2022-07-23T06:06:20;12.20;;;10.70;;
28252;SDS011;15515;45.588;5.276;2022-07-23T06:08:47;10.95;;;9.75;;
28252;SDS011;15515;45.588;5.276;2022-07-23T06:11:15;10.90;;;9.60;;
28252;SDS011;15515;45.588;5.276;2022-07-23T06:13:42;10.82;;;9.75;;
28252;SDS011;15515;45.588;5.276;2022-07-23T06:16:12;11.57;;;10.48;;
28252;SDS011;15515;45.588;5.276;2022-07-23T06:18:39;10.63;;;9.55;;
28252;SDS011;15515;45.588;5.276;2022-07-23T06:21:07;10.73;;;9.60;;
28252;SDS011;15515;45.588;5.276;2022-07-23T06:23:43;11.95;;;10.70;;
28252;SDS011;15515;45.588;5.276;2022-07-23T06:26:11;12.48;;;10.70;;
28252;SDS011;15515;45.588;5.276;2022-07-23T06:28:38;10.63;;;9.57;;
28252;SDS011;15515;45.588;5.276;2022-07-23T06:31:06;10.50;;;9.38;;
28252;SDS011;15515;45.588;5.276;2022-07-23T06:33:33;10.02;;;9.13;;
28252;SDS011;15515;45.588;5.276;2022-07-23T06:36:01;13.23;;;9.73;;
28252;SDS011;15515;45.588;5.276;2022-07-23T06:38:28;13.23;;;10.27;;
28252;SDS011;15515;45.588;5.276;2022-07-23T06:40:55;12.38;;;10.30;;
28252;SDS011;15515;45.588;5.276;2022-07-23T06:43:23;13.80;;;9.52;;
28252;SDS011;15515;45.588;5.276;2022-07-23T06:45:53;10.98;;;9.32;;
28252;SDS011;15515;45.588;5.276;2022-07-23T06:48:21;9.93;;;8.82;;
28252;SDS011;15515;45.588;5.276;2022-07-23T06:50:49;10.13;;;9.13;;
28252;SDS011;15515;45.588;5.276;2022-07-23T06:53:23;12.88;;;9.45;;
28252;SDS011;15515;45.588;5.276;2022-07-23T06:55:50;11.20;;;8.80;;
28252;SDS011;15515;45.588;5.276;2022-07-23T06:58:17;10.40;;;9.38;;
28252;SDS011;15515;45.588;5.276;2022-07-23T07:00:46;10.10;;;8.75;;
28252;SDS011;15515;45.588;5.276;2022-07-23T07:03:13;9.27;;;8.38;;
28252;SDS011;15515;45.588;5.276;2022-07-23T07:05:40;10.52;;;9.05;;
28252;SDS011;15515;45.588;5.276;2022-07-23T07:08:07;10.48;;;8.90;;
28252;SDS011;15515;45.588;5.276;2022-07-23T07:10:35;9.70;;;8.80;;
28252;SDS011;15515;45.588;5.276;2022-07-23T07:13:02;11.70;;;8.60;;
28252;SDS011;15515;45.588;5.276;2022-07-23T07:15:31;13.05;;;9.07;;
28252;SDS011;15515;45.588;5.276;2022-07-23T07:17:58;9.20;;;8.30;;
28252;SDS011;15515;45.588;5.276;2022-07-23T07:20:26;10.68;;;8.57;;
28252;SDS011;15515;45.588;5.276;2022-07-23T07:22:54;8.73;;;7.82;;
28252;SDS011;15515;45.588;5.276;2022-07-23T07:25:21;10.73;;;8.50;;
28252;SDS011;15515;45.588;5.276;2022-07-23T07:27:49;14.52;;;10.18;;
28252;SDS011;15515;45.588;5.276;2022-07-23T07:30:17;10.80;;;9.20;;
28252;SDS011;15515;45.588;5.276;2022-07-23T07:32:44;10.55;;;8.98;;
28252;SDS011;15515;45.588;5.276;2022-07-23T07:35:26;11.47;;;8.80;;
28252;SDS011;15515;45.588;5.276;2022-07-23T07:37:53;8.55;;;7.75;;
28252;SDS011;15515;45.588;5.276;2022-07-23T07:40:20;10.68;;;8.43;;
28252;SDS011;15515;45.588;5.276;2022-07-23T07:42:48;10.02;;;8.70;;
28252;SDS011;15515;45.588;5.276;2022-07-23T07:45:19;9.32;;;8.25;;
28252;SDS011;15515;45.588;5.276;2022-07-23T07:47:47;11.60;;;8.73;;
28252;SDS011;15515;45.588;5.276;2022-07-23T07:50:14;8.73;;;7.82;;
28252;SDS011;15515;45.588;5.276;2022-07-23T07:52:42;9.23;;;7.22;;
28252;SDS011;15515;45.588;5.276;2022-07-23T07:55:09;9.52;;;8.48;;
28252;SDS011;15515;45.588;5.276;2022-07-23T07:57:37;11.52;;;7.78;;
28252;SDS011;15515;45.588;5.276;2022-07-23T08:00:05;10.77;;;9.07;;
28252;SDS011;15515;45.588;5.276;2022-07-23T08:02:44;12.80;;;8.63;;
28252;SDS011;15515;45.588;5.276;2022-07-23T08:05:12;12.45;;;8.73;;
28252;SDS011;15515;45.588;5.276;2022-07-23T08:07:41;11.90;;;9.38;;
28252;SDS011;15515;45.588;5.276;2022-07-23T08:10:08;10.82;;;8.23;;
28252;SDS011;15515;45.588;5.276;2022-07-23T08:12:46;12.23;;;9.05;;
28252;SDS011;15515;45.588;5.276;2022-07-23T08:15:20;12.38;;;9.07;;
28252;SDS011;15515;45.588;5.276;2022-07-23T08:17:48;10.38;;;9.05;;
28252;SDS011;15515;45.588;5.276;2022-07-23T08:20:16;10.15;;;9.13;;
28252;SDS011;15515;45.588;5.276;2022-07-23T08:25:21;11.38;;;9.25;;
28252;SDS011;15515;45.588;5.276;2022-07-23T08:27:50;11.38;;;10.25;;
28252;SDS011;15515;45.588;5.276;2022-07-23T08:30:18;11.68;;;9.05;;
28252;SDS011;15515;45.588;5.276;2022-07-23T08:32:50;10.77;;;8.98;;
28252;SDS011;15515;45.588;5.276;2022-07-23T08:35:26;10.63;;;9.30;;
28252;SDS011;15515;45.588;5.276;2022-07-23T08:38:01;10.15;;;9.00;;
28252;SDS011;15515;45.588;5.276;2022-07-23T08:40:38;10.57;;;8.95;;
28252;SDS011;15515;45.588;5.276;2022-07-23T08:43:10;9.57;;;8.25;;
28252;SDS011;15515;45.588;5.276;2022-07-23T08:45:39;9.43;;;8.63;;
28252;SDS011;15515;45.588;5.276;2022-07-23T08:48:10;12.05;;;10.00;;
28252;SDS011;15515;45.588;5.276;2022-07-23T08:50:41;10.73;;;9.38;;
28252;SDS011;15515;45.588;5.276;2022-07-23T08:53:09;9.32;;;8.43;;
28252;SDS011;15515;45.588;5.276;2022-07-23T08:55:37;13.85;;;8.55;;
28252;SDS011;15515;45.588;5.276;2022-07-23T08:58:04;8.93;;;8.05;;
28252;SDS011;15515;45.588;5.276;2022-07-23T09:00:31;10.88;;;8.90;;
28252;SDS011;15515;45.588;5.276;2022-07-23T09:02:59;12.77;;;7.90;;
28252;SDS011;15515;45.588;5.276;2022-07-23T09:05:27;12.27;;;9.13;;
28252;SDS011;15515;45.588;5.276;2022-07-23T09:10:46;14.63;;;9.40;;
28252;SDS011;15515;45.588;5.276;2022-07-23T09:13:24;11.38;;;9.05;;
28252;SDS011;15515;45.588;5.276;2022-07-23T09:15:53;8.68;;;7.68;;
28252;SDS011;15515;45.588;5.276;2022-07-23T09:23:55;8.40;;;7.45;;
28252;SDS011;15515;45.588;5.276;2022-07-23T09:31:30;10.88;;;8.18;;
28252;SDS011;15515;45.588;5.276;2022-07-23T09:34:22;11.43;;;7.90;;
28252;SDS011;15515;45.588;5.276;2022-07-23T09:36:53;11.20;;;8.30;;
28252;SDS011;15515;45.588;5.276;2022-07-23T09:39:24;9.57;;;7.95;;
28252;SDS011;15515;45.588;5.276;2022-07-23T09:41:56;9.15;;;7.25;;
28252;SDS011;15515;45.588;5.276;2022-07-23T09:44:24;9.00;;;7.85;;
28252;SDS011;15515;45.588;5.276;2022-07-23T09:46:57;9.20;;;8.23;;
28252;SDS011;15515;45.588;5.276;2022-07-23T09:49:27;12.02;;;8.13;;
28252;SDS011;15515;45.588;5.276;2022-07-23T09:51:56;8.95;;;8.00;;
28252;SDS011;15515;45.588;5.276;2022-07-23T09:57:11;8.98;;;7.55;;
28252;SDS011;15515;45.588;5.276;2022-07-23T09:59:43;11.25;;;7.45;;
28252;SDS011;15515;45.588;5.276;2022-07-23T10:02:13;11.38;;;7.13;;
28252;SDS011;15515;45.588;5.276;2022-07-23T10:05:10;8.23;;;7.22;;
28252;SDS011;15515;45.588;5.276;2022-07-23T10:08:03;14.20;;;8.20;;
28252;SDS011;15515;45.588;5.276;2022-07-23T10:10:51;12.05;;;7.70;;
28252;SDS011;15515;45.588;5.276;2022-07-23T10:13:20;7.95;;;7.15;;
28252;SDS011;15515;45.588;5.276;2022-07-23T10:16:01;7.88;;;7.15;;
28252;SDS011;15515;45.588;5.276;2022-07-23T10:18:29;8.70;;;7.55;;
28252;SDS011;15515;45.588;5.276;2022-07-23T10:20:57;10.00;;;7.80;;
28252;SDS011;15515;45.588;5.276;2022-07-23T10:23:33;8.60;;;7.15;;
28252;SDS011;15515;45.588;5.276;2022-07-23T10:26:24;14.02;;;7.55;;
28252;SDS011;15515;45.588;5.276;2022-07-23T10:37:21;8.13;;;7.32;;
28252;SDS011;15515;45.588;5.276;2022-07-23T10:42:44;8.63;;;7.22;;
28252;SDS011;15515;45.588;5.276;2022-07-23T10:45:22;7.70;;;6.70;;
28252;SDS011;15515;45.588;5.276;2022-07-23T10:47:50;8.05;;;6.88;;
28252;SDS011;15515;45.588;5.276;2022-07-23T10:53:08;8.55;;;6.53;;
28252;SDS011;15515;45.588;5.276;2022-07-23T10:55:45;10.02;;;7.18;;
28252;SDS011;15515;45.588;5.276;2022-07-23T10:58:18;9.97;;;7.13;;
28252;SDS011;15515;45.588;5.276;2022-07-23T11:01:30;8.52;;;7.32;;
28252;SDS011;15515;45.588;5.276;2022-07-23T11:04:03;8.90;;;7.18;;
28252;SDS011;15515;45.588;5.276;2022-07-23T11:09:23;8.82;;;7.93;;
28252;SDS011;15515;45.588;5.276;2022-07-23T11:17:29;8.35;;;6.93;;
28252;SDS011;15515;45.588;5.276;2022-07-23T11:20:19;8.80;;;7.30;;
28252;SDS011;15515;45.588;5.276;2022-07-23T11:22:49;8.13;;;6.85;;
28252;SDS011;15515;45.588;5.276;2022-07-23T11:27:50;7.15;;;6.55;;
28252;SDS011;15515;45.588;5.276;2022-07-23T11:32:54;7.45;;;6.50;;
28252;SDS011;15515;45.588;5.276;2022-07-23T11:35:42;7.93;;;6.70;;
28252;SDS011;15515;45.588;5.276;2022-07-23T11:38:21;7.95;;;6.78;;
28252;SDS011;15515;45.588;5.276;2022-07-23T11:40:50;7.10;;;6.50;;
28252;SDS011;15515;45.588;5.276;2022-07-23T11:43:19;6.82;;;6.15;;
28252;SDS011;15515;45.588;5.276;2022-07-23T11:45:48;8.27;;;6.32;;
28252;SDS011;15515;45.588;5.276;2022-07-23T11:48:19;7.28;;;6.55;;
28252;SDS011;15515;45.588;5.276;2022-07-23T11:50:49;7.43;;;6.72;;
28252;SDS011;15515;45.588;5.276;2022-07-23T11:53:21;10.63;;;7.63;;
28252;SDS011;15515;45.588;5.276;2022-07-23T11:55:50;6.85;;;6.25;;
28252;SDS011;15515;45.588;5.276;2022-07-23T11:58:17;9.23;;;6.95;;
28252;SDS011;15515;45.588;5.276;2022-07-23T12:00:45;7.68;;;6.22;;
28252;SDS011;15515;45.588;5.276;2022-07-23T12:03:13;8.50;;;7.63;;
28252;SDS011;15515;45.588;5.276;2022-07-23T12:05:41;10.52;;;9.38;;
28252;SDS011;15515;45.588;5.276;2022-07-23T12:08:08;8.68;;;6.85;;
28252;SDS011;15515;45.588;5.276;2022-07-23T12:10:39;9.75;;;7.07;;
28252;SDS011;15515;45.588;5.276;2022-07-23T12:13:09;8.15;;;7.03;;
28252;SDS011;15515;45.588;5.276;2022-07-23T12:15:56;8.20;;;7.43;;
28252;SDS011;15515;45.588;5.276;2022-07-23T12:18:26;7.55;;;6.85;;
28252;SDS011;15515;45.588;5.276;2022-07-23T12:20:56;9.18;;;7.20;;
28252;SDS011;15515;45.588;5.276;2022-07-23T12:23:29;7.57;;;6.80;;
28252;SDS011;15515;45.588;5.276;2022-07-23T12:26:00;7.25;;;6.53;;
28252;SDS011;15515;45.588;5.276;2022-07-23T12:28:28;8.52;;;6.35;;
28252;SDS011;15515;45.588;5.276;2022-07-23T12:31:00;6.15;;;5.60;;
28252;SDS011;15515;45.588;5.276;2022-07-23T12:33:28;8.48;;;6.35;;
28252;SDS011;15515;45.588;5.276;2022-07-23T12:35:58;7.00;;;5.93;;
28252;SDS011;15515;45.588;5.276;2022-07-23T12:38:36;7.82;;;6.63;;
28252;SDS011;15515;45.588;5.276;2022-07-23T12:41:05;7.40;;;6.20;;
28252;SDS011;15515;45.588;5.276;2022-07-23T12:43:33;9.65;;;6.22;;
28252;SDS011;15515;45.588;5.276;2022-07-23T12:46:04;7.45;;;5.75;;
28252;SDS011;15515;45.588;5.276;2022-07-23T12:48:33;6.13;;;5.55;;
28252;SDS011;15515;45.588;5.276;2022-07-23T12:51:04;9.45;;;6.70;;
28252;SDS011;15515;45.588;5.276;2022-07-23T12:53:38;6.20;;;5.60;;
28252;SDS011;15515;45.588;5.276;2022-07-23T12:56:11;6.72;;;5.57;;
28252;SDS011;15515;45.588;5.276;2022-07-23T13:03:58;7.00;;;6.30;;
28252;SDS011;15515;45.588;5.276;2022-07-23T13:06:41;10.32;;;7.13;;
28252;SDS011;15515;45.588;5.276;2022-07-23T13:09:17;8.10;;;6.60;;
28252;SDS011;15515;45.588;5.276;2022-07-23T13:11:52;7.10;;;6.45;;
28252;SDS011;15515;45.588;5.276;2022-07-23T13:14:21;6.50;;;5.90;;
28252;SDS011;15515;45.588;5.276;2022-07-23T13:16:50;6.40;;;5.80;;
28252;SDS011;15515;45.588;5.276;2022-07-23T13:19:18;8.48;;;5.72;;
28252;SDS011;15515;45.588;5.276;2022-07-23T13:21:48;7.65;;;5.78;;
28252;SDS011;15515;45.588;5.276;2022-07-23T13:24:16;6.20;;;5.65;;
28252;SDS011;15515;45.588;5.276;2022-07-23T13:26:43;6.25;;;5.70;;
28252;SDS011;15515;45.588;5.276;2022-07-23T13:29:10;8.90;;;6.63;;
28252;SDS011;15515;45.588;5.276;2022-07-23T13:31:38;6.60;;;5.97;;
28252;SDS011;15515;45.588;5.276;2022-07-23T13:34:05;6.60;;;5.80;;
28252;SDS011;15515;45.588;5.276;2022-07-23T13:36:34;6.40;;;5.78;;
28252;SDS011;15515;45.588;5.276;2022-07-23T13:39:02;7.20;;;5.57;;
28252;SDS011;15515;45.588;5.276;2022-07-23T13:41:30;6.65;;;5.93;;
28252;SDS011;15515;45.588;5.276;2022-07-23T13:43:58;6.40;;;5.82;;
28252;SDS011;15515;45.588;5.276;2022-07-23T13:46:26;7.65;;;5.80;;
28252;SDS011;15515;45.588;5.276;2022-07-23T13:48:53;7.72;;;6.10;;
28252;SDS011;15515;45.588;5.276;2022-07-23T13:51:20;6.47;;;5.60;;
28252;SDS011;15515;45.588;5.276;2022-07-23T13:53:47;6.72;;;5.70;;
28252;SDS011;15515;45.588;5.276;2022-07-23T13:56:14;8.35;;;5.78;;
28252;SDS011;15515;45.588;5.276;2022-07-23T13:58:41;7.93;;;5.55;;
28252;SDS011;15515;45.588;5.276;2022-07-23T14:01:08;7.05;;;6.45;;
28252;SDS011;15515;45.588;5.276;2022-07-23T14:03:36;6.35;;;5.65;;
28252;SDS011;15515;45.588;5.276;2022-07-23T14:06:03;5.97;;;5.38;;
28252;SDS011;15515;45.588;5.276;2022-07-23T14:08:32;6.60;;;6.00;;
28252;SDS011;15515;45.588;5.276;2022-07-23T14:10:59;8.57;;;5.47;;
28252;SDS011;15515;45.588;5.276;2022-07-23T14:13:26;6.40;;;5.80;;
28252;SDS011;15515;45.588;5.276;2022-07-23T14:15:53;6.82;;;5.75;;
28252;SDS011;15515;45.588;5.276;2022-07-23T14:18:20;6.05;;;5.55;;
28252;SDS011;15515;45.588;5.276;2022-07-23T14:20:47;9.95;;;5.93;;
28252;SDS011;15515;45.588;5.276;2022-07-23T14:23:14;8.27;;;6.25;;
28252;SDS011;15515;45.588;5.276;2022-07-23T14:25:41;5.80;;;5.30;;
28252;SDS011;15515;45.588;5.276;2022-07-23T14:28:08;7.57;;;5.93;;
28252;SDS011;15515;45.588;5.276;2022-07-23T14:30:38;7.85;;;6.43;;
28252;SDS011;15515;45.588;5.276;2022-07-23T14:33:05;6.10;;;5.60;;
28252;SDS011;15515;45.588;5.276;2022-07-23T14:35:32;6.07;;;5.45;;
28252;SDS011;15515;45.588;5.276;2022-07-23T14:37:59;7.90;;;5.78;;
28252;SDS011;15515;45.588;5.276;2022-07-23T14:40:26;9.23;;;5.70;;
28252;SDS011;15515;45.588;5.276;2022-07-23T14:42:53;7.07;;;5.63;;
28252;SDS011;15515;45.588;5.276;2022-07-23T14:45:20;6.20;;;5.38;;
28252;SDS011;15515;45.588;5.276;2022-07-23T14:47:48;5.45;;;4.97;;
28252;SDS011;15515;45.588;5.276;2022-07-23T14:50:15;8.65;;;5.72;;
28252;SDS011;15515;45.588;5.276;2022-07-23T14:52:42;8.10;;;5.43;;
28252;SDS011;15515;45.588;5.276;2022-07-23T14:55:09;5.60;;;5.10;;
28252;SDS011;15515;45.588;5.276;2022-07-23T14:57:36;6.13;;;5.53;;
28252;SDS011;15515;45.588;5.276;2022-07-23T15:00:04;6.18;;;5.55;;
28252;SDS011;15515;45.588;5.276;2022-07-23T15:02:32;7.63;;;5.18;;
28252;SDS011;15515;45.588;5.276;2022-07-23T15:04:59;6.05;;;5.45;;
28252;SDS011;15515;45.588;5.276;2022-07-23T15:07:29;5.65;;;5.25;;
28252;SDS011;15515;45.588;5.276;2022-07-23T15:09:57;6.18;;;5.55;;
28252;SDS011;15515;45.588;5.276;2022-07-23T15:12:24;6.90;;;5.22;;
28252;SDS011;15515;45.588;5.276;2022-07-23T15:14:51;8.40;;;5.40;;
28252;SDS011;15515;45.588;5.276;2022-07-23T15:17:18;6.47;;;5.50;;
28252;SDS011;15515;45.588;5.276;2022-07-23T15:19:45;9.68;;;5.70;;
28252;SDS011;15515;45.588;5.276;2022-07-23T15:22:13;7.05;;;5.43;;
28252;SDS011;15515;45.588;5.276;2022-07-23T15:24:40;5.97;;;5.47;;
28252;SDS011;15515;45.588;5.276;2022-07-23T15:27:07;5.47;;;5.00;;
28252;SDS011;15515;45.588;5.276;2022-07-23T15:29:34;11.23;;;5.55;;
28252;SDS011;15515;45.588;5.276;2022-07-23T15:32:03;5.70;;;5.18;;
28252;SDS011;15515;45.588;5.276;2022-07-23T15:34:30;5.65;;;5.07;;
28252;SDS011;15515;45.588;5.276;2022-07-23T15:37:00;6.35;;;5.30;;
28252;SDS011;15515;45.588;5.276;2022-07-23T15:39:29;6.35;;;5.65;;
28252;SDS011;15515;45.588;5.276;2022-07-23T15:42:02;6.75;;;5.80;;
28252;SDS011;15515;45.588;5.276;2022-07-23T15:44:29;6.43;;;5.82;;
28252;SDS011;15515;45.588;5.276;2022-07-23T15:46:57;6.68;;;6.07;;
28252;SDS011;15515;45.588;5.276;2022-07-23T15:49:26;6.22;;;5.40;;
28252;SDS011;15515;45.588;5.276;2022-07-23T15:51:54;7.38;;;5.32;;
28252;SDS011;15515;45.588;5.276;2022-07-23T15:54:21;6.88;;;5.40;;
28252;SDS011;15515;45.588;5.276;2022-07-23T15:56:49;6.00;;;5.40;;
28252;SDS011;15515;45.588;5.276;2022-07-23T15:59:16;6.70;;;5.53;;
28252;SDS011;15515;45.588;5.276;2022-07-23T16:01:43;6.10;;;5.60;;
28252;SDS011;15515;45.588;5.276;2022-07-23T16:04:11;6.13;;;5.53;;
28252;SDS011;15515;45.588;5.276;2022-07-23T16:06:38;6.40;;;5.85;;
28252;SDS011;15515;45.588;5.276;2022-07-23T16:09:08;6.45;;;5.50;;
28252;SDS011;15515;45.588;5.276;2022-07-23T16:11:36;7.97;;;5.60;;
28252;SDS011;15515;45.588;5.276;2022-07-23T16:14:03;11.10;;;5.53;;
28252;SDS011;15515;45.588;5.276;2022-07-23T16:16:30;6.90;;;5.97;;
28252;SDS011;15515;45.588;5.276;2022-07-23T16:18:57;6.00;;;5.47;;
28252;SDS011;15515;45.588;5.276;2022-07-23T16:21:25;6.88;;;5.82;;
28252;SDS011;15515;45.588;5.276;2022-07-23T16:23:53;9.80;;;6.05;;
28252;SDS011;15515;45.588;5.276;2022-07-23T16:26:21;6.65;;;6.05;;
28252;SDS011;15515;45.588;5.276;2022-07-23T16:28:48;6.93;;;6.05;;
28252;SDS011;15515;45.588;5.276;2022-07-23T16:31:15;9.88;;;6.43;;
28252;SDS011;15515;45.588;5.276;2022-07-23T16:33:42;8.13;;;6.80;;
28252;SDS011;15515;45.588;5.276;2022-07-23T16:36:10;9.45;;;6.13;;
28252;SDS011;15515;45.588;5.276;2022-07-23T16:38:37;10.90;;;6.50;;
28252;SDS011;15515;45.588;5.276;2022-07-23T16:41:05;6.47;;;5.88;;
28252;SDS011;15515;45.588;5.276;2022-07-23T16:43:33;6.65;;;5.70;;
28252;SDS011;15515;45.588;5.276;2022-07-23T16:46:00;8.00;;;5.85;;
28252;SDS011;15515;45.588;5.276;2022-07-23T16:48:27;6.38;;;5.65;;
28252;SDS011;15515;45.588;5.276;2022-07-23T16:50:55;8.40;;;5.82;;
28252;SDS011;15515;45.588;5.276;2022-07-23T16:53:22;7.28;;;5.57;;
28252;SDS011;15515;45.588;5.276;2022-07-23T16:55:49;6.38;;;5.70;;
28252;SDS011;15515;45.588;5.276;2022-07-23T16:58:16;7.55;;;5.55;;
28252;SDS011;15515;45.588;5.276;2022-07-23T17:00:44;7.00;;;5.82;;
28252;SDS011;15515;45.588;5.276;2022-07-23T17:03:11;10.23;;;6.22;;
28252;SDS011;15515;45.588;5.276;2022-07-23T17:05:38;8.85;;;6.38;;
28252;SDS011;15515;45.588;5.276;2022-07-23T17:08:05;6.40;;;5.78;;
28252;SDS011;15515;45.588;5.276;2022-07-23T17:10:32;13.68;;;6.82;;
28252;SDS011;15515;45.588;5.276;2022-07-23T17:12:59;9.02;;;6.88;;
28252;SDS011;15515;45.588;5.276;2022-07-23T17:15:27;12.05;;;7.85;;
28252;SDS011;15515;45.588;5.276;2022-07-23T17:17:55;7.68;;;6.25;;
28252;SDS011;15515;45.588;5.276;2022-07-23T17:20:22;8.95;;;7.78;;
28252;SDS011;15515;45.588;5.276;2022-07-23T17:22:49;8.38;;;6.03;;
28252;SDS011;15515;45.588;5.276;2022-07-23T17:25:16;6.68;;;6.05;;
28252;SDS011;15515;45.588;5.276;2022-07-23T17:27:46;6.72;;;6.05;;
28252;SDS011;15515;45.588;5.276;2022-07-23T17:30:14;6.65;;;5.93;;
28252;SDS011;15515;45.588;5.276;2022-07-23T17:32:42;7.07;;;6.25;;
28252;SDS011;15515;45.588;5.276;2022-07-23T17:35:09;7.90;;;7.20;;
28252;SDS011;15515;45.588;5.276;2022-07-23T17:37:36;7.75;;;7.05;;
28252;SDS011;15515;45.588;5.276;2022-07-23T17:40:03;7.45;;;6.75;;
28252;SDS011;15515;45.588;5.276;2022-07-23T17:42:31;8.98;;;7.22;;
28252;SDS011;15515;45.588;5.276;2022-07-23T17:44:59;8.68;;;7.40;;
28252;SDS011;15515;45.588;5.276;2022-07-23T17:47:30;8.38;;;7.53;;
28252;SDS011;15515;45.588;5.276;2022-07-23T17:49:57;9.18;;;6.72;;
28252;SDS011;15515;45.588;5.276;2022-07-23T17:52:25;10.55;;;7.15;;
28252;SDS011;15515;45.588;5.276;2022-07-23T17:54:52;8.15;;;6.25;;
28252;SDS011;15515;45.588;5.276;2022-07-23T17:57:19;8.32;;;7.50;;
28252;SDS011;15515;45.588;5.276;2022-07-23T17:59:46;8.68;;;7.78;;
28252;SDS011;15515;45.588;5.276;2022-07-23T18:02:14;9.98;;;7.20;;
28252;SDS011;15515;45.588;5.276;2022-07-23T18:04:41;8.55;;;6.20;;
28252;SDS011;15515;45.588;5.276;2022-07-23T18:07:08;7.20;;;6.50;;
28252;SDS011;15515;45.588;5.276;2022-07-23T18:09:35;7.47;;;6.78;;
28252;SDS011;15515;45.588;5.276;2022-07-23T18:12:02;7.68;;;6.35;;
28252;SDS011;15515;45.588;5.276;2022-07-23T18:14:30;7.32;;;6.57;;
28252;SDS011;15515;45.588;5.276;2022-07-23T18:16:58;6.78;;;6.18;;
28252;SDS011;15515;45.588;5.276;2022-07-23T18:19:26;7.63;;;5.95;;
28252;SDS011;15515;45.588;5.276;2022-07-23T18:21:53;6.97;;;6.28;;
28252;SDS011;15515;45.588;5.276;2022-07-23T18:24:20;7.32;;;6.60;;
28252;SDS011;15515;45.588;5.276;2022-07-23T18:26:49;7.60;;;6.60;;
28252;SDS011;15515;45.588;5.276;2022-07-23T18:29:18;7.10;;;6.30;;
28252;SDS011;15515;45.588;5.276;2022-07-23T18:31:46;6.90;;;6.03;;
28252;SDS011;15515;45.588;5.276;2022-07-23T18:34:13;7.60;;;6.30;;
28252;SDS011;15515;45.588;5.276;2022-07-23T18:36:42;7.18;;;6.47;;
28252;SDS011;15515;45.588;5.276;2022-07-23T18:39:09;7.28;;;6.50;;
28252;SDS011;15515;45.588;5.276;2022-07-23T18:41:37;8.63;;;6.35;;
28252;SDS011;15515;45.588;5.276;2022-07-23T18:44:05;6.72;;;6.03;;
28252;SDS011;15515;45.588;5.276;2022-07-23T18:46:32;8.30;;;6.60;;
28252;SDS011;15515;45.588;5.276;2022-07-23T18:48:59;8.35;;;7.15;;
28252;SDS011;15515;45.588;5.276;2022-07-23T18:51:26;7.50;;;6.80;;
28252;SDS011;15515;45.588;5.276;2022-07-23T18:53:55;10.05;;;7.60;;
28252;SDS011;15515;45.588;5.276;2022-07-23T18:56:22;9.20;;;7.70;;
28252;SDS011;15515;45.588;5.276;2022-07-23T18:58:49;8.93;;;8.05;;
28252;SDS011;15515;45.588;5.276;2022-07-23T19:01:17;8.75;;;6.95;;
28252;SDS011;15515;45.588;5.276;2022-07-23T19:03:44;8.30;;;7.50;;
28252;SDS011;15515;45.588;5.276;2022-07-23T19:06:11;8.23;;;6.82;;
28252;SDS011;15515;45.588;5.276;2022-07-23T19:08:38;8.85;;;7.78;;
28252;SDS011;15515;45.588;5.276;2022-07-23T19:11:07;11.43;;;7.82;;
28252;SDS011;15515;45.588;5.276;2022-07-23T19:13:34;9.00;;;7.80;;
28252;SDS011;15515;45.588;5.276;2022-07-23T19:16:02;8.38;;;6.80;;
28252;SDS011;15515;45.588;5.276;2022-07-23T19:18:31;7.43;;;6.70;;
28252;SDS011;15515;45.588;5.276;2022-07-23T19:20:59;9.05;;;6.45;;
28252;SDS011;15515;45.588;5.276;2022-07-23T19:23:26;12.10;;;7.65;;
28252;SDS011;15515;45.588;5.276;2022-07-23T19:25:54;9.10;;;7.22;;
28252;SDS011;15515;45.588;5.276;2022-07-23T19:28:21;11.38;;;7.32;;
28252;SDS011;15515;45.588;5.276;2022-07-23T19:30:48;9.73;;;7.50;;
28252;SDS011;15515;45.588;5.276;2022-07-23T19:33:15;9.25;;;7.45;;
28252;SDS011;15515;45.588;5.276;2022-07-23T19:35:42;10.00;;;8.45;;
28252;SDS011;15515;45.588;5.276;2022-07-23T19:38:09;15.45;;;8.75;;
28252;SDS011;15515;45.588;5.276;2022-07-23T19:40:36;13.52;;;8.65;;
28252;SDS011;15515;45.588;5.276;2022-07-23T19:43:04;11.68;;;8.63;;
28252;SDS011;15515;45.588;5.276;2022-07-23T19:45:31;14.02;;;9.00;;
28252;SDS011;15515;45.588;5.276;2022-07-23T19:47:59;13.02;;;8.75;;
28252;SDS011;15515;45.588;5.276;2022-07-23T19:50:26;10.48;;;8.00;;
28252;SDS011;15515;45.588;5.276;2022-07-23T19:52:55;9.02;;;7.63;;
28252;SDS011;15515;45.588;5.276;2022-07-23T19:55:22;7.90;;;7.07;;
28252;SDS011;15515;45.588;5.276;2022-07-23T19:57:50;8.63;;;7.18;;
28252;SDS011;15515;45.588;5.276;2022-07-23T20:00:17;9.10;;;7.03;;
28252;SDS011;15515;45.588;5.276;2022-07-23T20:02:45;9.02;;;6.38;;
28252;SDS011;15515;45.588;5.276;2022-07-23T20:05:14;8.77;;;7.15;;
28252;SDS011;15515;45.588;5.276;2022-07-23T20:07:41;8.52;;;7.25;;
28252;SDS011;15515;45.588;5.276;2022-07-23T20:10:09;10.18;;;8.60;;
28252;SDS011;15515;45.588;5.276;2022-07-23T20:12:38;11.13;;;9.98;;
28252;SDS011;15515;45.588;5.276;2022-07-23T20:15:07;9.02;;;8.05;;
28252;SDS011;15515;45.588;5.276;2022-07-23T20:17:35;8.48;;;7.28;;
28252;SDS011;15515;45.588;5.276;2022-07-23T20:20:05;9.20;;;8.15;;